Time;durP1;ratioP1;P1;durP2;ratioP2;P2;SDS_P1;SDS_P2;PMS_P1;PMS_P2;Temp;Humidity;BMP_temperature;BMP_pressure;BME280_temperature;BME280_humidity;BME280_pressure;Samples;Min_cycle;Max_cycle;Signal;HPM_P1;HPM_P2
2022/10/22 00:01:37;;;;;;;11.00;3.50;;;;;;;13.01;100.00;100719.09;5089448;28;20367;-70
2022/10/22 00:04:03;;;;;;;9.25;3.50;;;;;;;12.99;100.00;100715.78;5075574;28;20028;-70
2022/10/22 00:06:28;;;;;;;10.55;3.88;;;;;;;13.01;100.00;100719.91;5070722;28;20366;-69
2022/10/22 00:08:54;;;;;;;9.05;3.15;;;;;;;13.01;100.00;100717.19;5073640;28;20033;-69
2022/10/22 00:11:19;;;;;;;7.50;3.42;;;;;;;12.96;100.00;100719.81;5091058;28;20020;-68
2022/10/22 00:13:45;;;;;;;8.27;4.05;;;;;;;13.00;100.00;100718.25;5091958;28;20028;-68
2022/10/22 00:16:11;;;;;;;11.70;4.07;;;;;;;12.97;100.00;100709.75;5090382;28;20421;-69
2022/10/22 00:18:37;;;;;;;9.45;3.65;;;;;;;12.98;100.00;100717.66;5089926;28;20476;-71
2022/10/22 00:21:03;;;;;;;10.57;3.20;;;;;;;12.95;100.00;100712.72;5091107;28;20110;-68
2022/10/22 00:23:28;;;;;;;8.35;3.60;;;;;;;12.97;100.00;100709.75;5089428;28;20077;-70
2022/10/22 00:25:54;;;;;;;7.47;3.50;;;;;;;12.96;100.00;100719.00;5071701;28;20024;-72
2022/10/22 00:28:19;;;;;;;10.15;3.60;;;;;;;12.92;100.00;100714.06;5073270;28;20073;-69
2022/10/22 00:30:45;;;;;;;13.75;3.72;;;;;;;12.91;100.00;100711.59;5091870;28;20031;-69
2022/10/22 00:33:10;;;;;;;7.53;3.60;;;;;;;12.89;100.00;100714.53;5095509;28;20103;-71
2022/10/22 00:35:36;;;;;;;7.38;4.10;;;;;;;12.84;100.00;100711.72;5082944;28;20448;-69
2022/10/22 00:38:02;;;;;;;8.25;3.65;;;;;;;12.88;100.00;100712.88;5087156;28;20024;-71
2022/10/22 00:40:27;;;;;;;8.35;3.60;;;;;;;12.91;100.00;100723.25;5093980;28;20055;-70
2022/10/22 00:42:53;;;;;;;6.80;3.35;;;;;;;12.89;100.00;100719.97;5094037;28;20020;-69
2022/10/22 00:45:24;;;;;;;7.60;3.97;;;;;;;12.90;100.00;100716.19;5095499;28;20028;-71
2022/10/22 00:48:26;;;;;;;11.60;3.50;;;;;;;12.98;100.00;100727.72;5093464;28;20056;-70
2022/10/22 00:51:01;;;;;;;10.13;3.75;;;;;;;12.93;100.00;100718.41;5071383;28;20037;-71
2022/10/22 00:53:49;;;;;;;12.20;3.95;;;;;;;12.99;100.00;100723.94;5070950;28;20468;-68
2022/10/22 00:56:14;;;;;;;9.38;3.83;;;;;;;12.96;100.00;100719.81;5075007;28;20077;-69
2022/10/22 00:58:51;;;;;;;14.27;3.85;;;;;;;12.93;100.00;100710.25;5074912;28;20086;-71
2022/10/22 01:01:21;;;;;;;17.52;4.20;;;;;;;12.91;100.00;100717.84;5086762;28;20031;-70
2022/10/22 01:03:48;;;;;;;9.85;3.70;;;;;;;12.90;100.00;100715.34;5093612;28;20087;-68
2022/10/22 01:06:20;;;;;;;13.57;3.72;;;;;;;12.90;100.00;100720.78;5089082;28;20028;-71
2022/10/22 01:09:07;;;;;;;9.77;4.00;;;;;;;12.88;100.00;100721.03;5074323;28;20028;-68
2022/10/22 01:11:48;;;;;;;9.15;4.00;;;;;;;12.91;100.00;100714.31;5073526;28;20020;-67
2022/10/22 01:14:28;;;;;;;9.43;3.80;;;;;;;12.90;100.00;100721.59;5076206;28;20081;-69
2022/10/22 01:17:03;;;;;;;9.88;4.03;;;;;;;12.92;100.00;100721.38;5074488;28;20555;-71
2022/10/22 01:19:47;;;;;;;9.60;4.03;;;;;;;12.91;100.00;100723.25;5088860;28;20030;-70
2022/10/22 01:22:26;;;;;;;10.80;4.03;;;;;;;12.90;100.00;100716.19;5089129;28;20111;-68
2022/10/22 01:24:55;;;;;;;12.07;4.20;;;;;;;12.88;100.00;100712.06;5093375;28;20400;-70
2022/10/22 01:27:38;;;;;;;13.18;4.25;;;;;;;12.89;100.00;100711.84;5094935;28;20024;-71
2022/10/22 01:30:09;;;;;;;10.13;4.40;;;;;;;12.86;100.00;100711.47;5092955;28;20028;-71
2022/10/22 01:32:42;;;;;;;10.73;4.15;;;;;;;12.89;100.00;100721.84;5084653;28;20103;-70
2022/10/22 01:35:10;;;;;;;11.70;4.22;;;;;;;12.86;100.00;100720.47;5074036;28;20017;-71
2022/10/22 01:37:43;;;;;;;8.65;4.03;;;;;;;12.83;100.00;100718.25;5074117;28;20024;-70
2022/10/22 01:40:10;;;;;;;9.45;4.40;;;;;;;12.82;100.00;100707.59;5089180;28;20026;-68
2022/10/22 01:42:36;;;;;;;8.63;4.40;;;;;;;12.84;100.00;100708.19;5094368;28;20039;-69
2022/10/22 01:45:01;;;;;;;19.98;4.35;;;;;;;12.83;100.00;100709.25;5094077;28;20351;-68
2022/10/22 01:47:39;;;;;;;12.15;4.88;;;;;;;12.83;100.00;100699.22;5075496;28;20024;-70
2022/10/22 01:50:22;;;;;;;10.30;4.30;;;;;;;12.84;100.00;100700.03;5088265;28;20035;-70
2022/10/22 01:52:50;;;;;;;10.25;4.85;;;;;;;12.81;100.00;100703.25;5083200;28;20162;-69
2022/10/22 01:55:52;;;;;;;11.07;4.40;;;;;;;12.80;100.00;100699.69;5088828;28;20020;-70
2022/10/22 01:58:49;;;;;;;13.15;4.43;;;;;;;12.84;100.00;100709.00;5083976;28;20076;-70
2022/10/22 02:01:30;;;;;;;11.70;4.18;;;;;;;12.81;100.00;100709.50;5079565;28;20024;-70
2022/10/22 02:03:59;;;;;;;10.98;4.00;;;;;;;12.79;100.00;100716.22;5073790;28;20047;-70
2022/10/22 02:06:26;;;;;;;12.90;5.00;;;;;;;12.81;100.00;100712.22;5073652;28;20025;-71
2022/10/22 02:08:53;;;;;;;9.63;4.38;;;;;;;12.75;100.00;100715.91;5077940;28;20481;-69
2022/10/22 02:11:18;;;;;;;13.35;4.47;;;;;;;12.72;100.00;100713.66;5092549;28;20131;-67
2022/10/22 02:13:51;;;;;;;15.30;4.63;;;;;;;12.70;100.00;100711.19;5089217;28;20522;-71
2022/10/22 02:16:49;;;;;;;10.23;4.40;;;;;;;12.78;100.00;100718.13;5088886;28;20027;-72
2022/10/22 02:19:24;;;;;;;10.80;4.72;;;;;;;12.73;100.00;100718.84;5069122;28;20054;-69
2022/10/22 02:21:49;;;;;;;9.60;4.03;;;;;;;12.71;100.00;100728.31;5073059;28;20132;-69
2022/10/22 02:24:16;;;;;;;14.15;4.50;;;;;;;12.69;100.00;100717.69;5073317;28;20051;-70
2022/10/22 02:26:57;;;;;;;13.20;5.03;;;;;;;12.71;100.00;100717.44;5073274;28;20434;-71
2022/10/22 02:29:32;;;;;;;10.20;4.70;;;;;;;12.72;100.00;100721.81;5080097;28;20039;-71
2022/10/22 02:32:00;;;;;;;12.93;4.57;;;;;;;12.70;100.00;100721.25;5072916;28;20035;-69
2022/10/22 02:34:30;;;;;;;13.55;4.72;;;;;;;12.67;100.00;100722.53;5091606;28;20032;-69
2022/10/22 02:36:58;;;;;;;11.30;4.40;;;;;;;12.67;100.00;100719.00;5091118;28;20019;-72
2022/10/22 02:39:24;;;;;;;12.13;4.55;;;;;;;12.68;100.00;100709.78;5092083;28;20027;-72
2022/10/22 02:41:49;;;;;;;10.68;4.82;;;;;;;12.69;100.00;100711.44;5092994;28;20028;-69
2022/10/22 02:44:14;;;;;;;9.73;4.63;;;;;;;12.71;100.00;100720.16;5093207;28;20436;-69
2022/10/22 02:46:41;;;;;;;8.18;4.38;;;;;;;12.69;100.00;100725.00;5092623;28;20020;-69
2022/10/22 02:49:07;;;;;;;13.25;4.40;;;;;;;12.67;100.00;100722.53;5092539;28;20036;-67
2022/10/22 02:51:32;;;;;;;14.10;4.85;;;;;;;12.65;100.00;100723.84;5092691;28;20077;-66
2022/10/22 02:53:57;;;;;;;12.73;4.60;;;;;;;12.65;100.00;100724.69;5091836;28;20059;-68
2022/10/22 02:56:23;;;;;;;10.02;5.00;;;;;;;12.64;100.00;100728.47;5092981;28;20028;-70
2022/10/22 02:58:48;;;;;;;13.73;4.57;;;;;;;12.63;100.00;100726.00;5089344;28;20045;-67
2022/10/22 03:01:13;;;;;;;15.73;5.10;;;;;;;12.59;100.00;100723.75;5070086;28;20123;-68
2022/10/22 03:03:38;;;;;;;10.43;4.78;;;;;;;12.58;100.00;100734.84;5071323;28;20471;-72
2022/10/22 03:06:04;;;;;;;20.77;4.65;;;;;;;12.57;100.00;100733.19;5071219;28;20033;-72
2022/10/22 03:08:29;;;;;;;9.85;4.40;;;;;;;12.58;100.00;100732.94;5072671;28;20082;-71
2022/10/22 03:10:54;;;;;;;10.10;4.32;;;;;;;12.54;100.00;100729.06;5090211;28;20028;-72
2022/10/22 03:13:20;;;;;;;15.98;4.80;;;;;;;12.57;100.00;100738.63;5092789;28;20459;-71
2022/10/22 03:15:48;;;;;;;12.35;4.55;;;;;;;12.56;100.00;100737.81;5092564;28;20058;-71
2022/10/22 03:18:13;;;;;;;10.77;4.65;;;;;;;12.54;100.00;100734.50;5093014;28;20028;-71
2022/10/22 03:20:38;;;;;;;10.00;4.20;;;;;;;12.53;100.00;100732.88;5091212;28;20036;-71
2022/10/22 03:23:04;;;;;;;11.95;4.38;;;;;;;12.58;100.00;100741.09;5081706;28;20028;-71
2022/10/22 03:25:33;;;;;;;14.10;4.60;;;;;;;12.59;100.00;100737.31;5072646;28;20024;-71
2022/10/22 03:28:02;;;;;;;7.55;4.68;;;;;;;12.58;100.00;100740.28;5072260;28;20021;-67
2022/10/22 03:30:27;;;;;;;14.82;4.68;;;;;;;12.54;100.00;100734.50;5072270;28;20028;-68
2022/10/22 03:32:53;;;;;;;13.77;4.50;;;;;;;12.53;100.00;100738.28;5072104;28;20484;-68
2022/10/22 03:35:18;;;;;;;10.77;4.28;;;;;;;12.53;100.00;100737.44;5072690;28;20017;-68
2022/10/22 03:37:43;;;;;;;11.90;4.57;;;;;;;12.55;100.00;100738.06;5072357;28;20029;-68
2022/10/22 03:40:10;;;;;;;17.33;4.35;;;;;;;12.53;100.00;100745.59;5070291;28;20032;-69
2022/10/22 03:42:35;;;;;;;9.55;4.60;;;;;;;12.53;100.00;100751.88;5071739;28;20029;-67
2022/10/22 03:45:01;;;;;;;12.90;4.22;;;;;;;12.53;100.00;100756.44;5072134;28;20024;-70
2022/10/22 03:47:26;;;;;;;16.70;4.63;;;;;;;12.55;100.00;100762.47;5079425;28;20016;-66
2022/10/22 03:49:52;;;;;;;11.95;4.53;;;;;;;12.53;100.00;100760.00;5092237;28;20024;-69
2022/10/22 03:52:17;;;;;;;21.17;5.13;;;;;;;12.54;100.00;100767.06;5092024;28;20032;-67
2022/10/22 03:54:43;;;;;;;19.98;4.70;;;;;;;12.54;100.00;100767.06;5073325;28;20475;-67
2022/10/22 03:57:09;;;;;;;17.88;4.43;;;;;;;12.54;100.00;100767.06;5073610;28;20468;-70
2022/10/22 03:59:36;;;;;;;19.75;5.40;;;;;;;12.57;100.00;100766.59;5072212;28;20048;-68
2022/10/22 04:02:02;;;;;;;15.45;4.88;;;;;;;12.59;100.00;100772.63;5069444;28;20021;-71
2022/10/22 04:04:28;;;;;;;14.98;5.13;;;;;;;12.61;100.00;100768.84;5085462;28;20024;-70
2022/10/22 04:06:53;;;;;;;12.82;4.80;;;;;;;12.59;100.00;100769.06;5077959;28;20071;-70
2022/10/22 04:09:18;;;;;;;15.32;4.53;;;;;;;12.58;100.00;100773.66;5089100;28;20085;-70
2022/10/22 04:11:44;;;;;;;23.67;4.97;;;;;;;12.56;100.00;100766.81;5095927;28;20467;-70
2022/10/22 04:14:10;;;;;;;14.07;4.82;;;;;;;12.58;100.00;100772.84;5095877;28;20043;-70
2022/10/22 04:16:38;;;;;;;12.90;4.63;;;;;;;12.62;100.00;100778.63;5093412;28;20098;-69
2022/10/22 04:19:04;;;;;;;15.10;4.70;;;;;;;12.64;100.00;100776.50;5094640;28;20070;-70
2022/10/22 04:21:30;;;;;;;19.42;4.65;;;;;;;12.61;100.00;100780.53;5093213;28;20467;-69
2022/10/22 04:23:55;;;;;;;18.48;5.25;;;;;;;12.60;100.00;100778.84;5095502;28;20455;-68
2022/10/22 04:26:20;;;;;;;16.75;4.38;;;;;;;12.64;100.00;100782.75;5095881;28;20034;-71
2022/10/22 04:28:48;;;;;;;14.50;4.45;;;;;;;12.65;100.00;100783.56;5094387;28;20033;-69
2022/10/22 04:31:16;;;;;;;17.95;4.78;;;;;;;12.62;100.00;100779.47;5081119;28;20104;-71
2022/10/22 04:33:42;;;;;;;15.85;4.65;;;;;;;12.65;100.00;100781.69;5076549;28;20477;-69
2022/10/22 04:36:09;;;;;;;14.60;4.47;;;;;;;12.67;100.00;100776.84;5092902;28;20020;-70
2022/10/22 04:38:34;;;;;;;18.98;4.95;;;;;;;12.66;100.00;100783.31;5077727;28;20585;-67
2022/10/22 04:41:09;;;;;;;14.75;5.32;;;;;;;12.71;100.00;100775.31;5094403;28;20085;-70
2022/10/22 04:43:34;;;;;;;16.35;5.18;;;;;;;12.71;100.00;100777.16;5095575;28;20477;-67
2022/10/22 04:46:00;;;;;;;17.15;5.05;;;;;;;12.75;100.00;100778.34;5093537;28;20024;-70
2022/10/22 04:48:25;;;;;;;17.23;5.03;;;;;;;12.75;100.00;100778.34;5094156;28;20024;-73
2022/10/22 04:50:50;;;;;;;15.50;4.75;;;;;;;12.76;100.00;100777.28;5075118;28;20024;-70
2022/10/22 04:53:16;;;;;;;14.65;4.43;;;;;;;12.76;100.00;100780.00;5077995;28;20467;-71
2022/10/22 04:55:41;;;;;;;15.88;5.15;;;;;;;12.74;100.00;100785.69;5075435;28;20099;-70
2022/10/22 04:58:06;;;;;;;22.05;5.28;;;;;;;12.77;100.00;100784.34;5088399;28;20456;-68
2022/10/22 05:00:31;;;;;;;19.67;4.95;;;;;;;12.74;100.00;100787.56;5089976;28;20035;-69
2022/10/22 05:02:57;;;;;;;23.02;5.07;;;;;;;12.77;100.00;100790.63;5093748;28;20020;-67
2022/10/22 05:05:22;;;;;;;15.40;5.28;;;;;;;12.79;100.00;100795.81;5094845;28;20024;-68
2022/10/22 05:07:50;;;;;;;18.75;5.18;;;;;;;12.79;100.00;100790.38;5095106;28;20016;-66
2022/10/22 05:10:15;;;;;;;15.27;4.55;;;;;;;12.81;100.00;100790.97;5094594;28;20066;-70
2022/10/22 05:12:41;;;;;;;17.42;5.28;;;;;;;12.83;100.00;100791.56;5094970;28;20169;-69
2022/10/22 05:15:07;;;;;;;21.67;5.10;;;;;;;12.85;100.00;100789.41;5083464;28;20474;-70
2022/10/22 05:17:35;;;;;;;18.65;5.40;;;;;;;12.86;100.00;100790.22;5080884;28;20109;-68
2022/10/22 05:20:00;;;;;;;19.10;5.13;;;;;;;12.90;100.00;100794.13;5076520;28;20032;-69
2022/10/22 05:22:25;;;;;;;16.60;5.55;;;;;;;12.91;100.00;100793.88;5094772;28;20027;-69
2022/10/22 05:24:51;;;;;;;18.48;4.88;;;;;;;12.94;100.00;100798.81;5094470;28;20027;-70
2022/10/22 05:27:16;;;;;;;17.23;5.38;;;;;;;13.02;100.00;100800.31;5094487;28;20028;-70
2022/10/22 05:29:41;;;;;;;18.60;5.28;;;;;;;13.01;100.00;100804.09;5094264;28;20308;-67
2022/10/22 05:32:06;;;;;;;16.58;4.80;;;;;;;13.01;100.00;100798.66;5094473;28;20051;-68
2022/10/22 05:34:32;;;;;;;22.20;4.97;;;;;;;13.00;100.00;100796.19;5092519;28;20026;-68
2022/10/22 05:36:57;;;;;;;17.70;4.63;;;;;;;13.02;100.00;100797.63;5092981;28;20027;-70
2022/10/22 05:39:22;;;;;;;16.65;4.95;;;;;;;13.00;100.00;100804.34;5086252;28;20031;-66
2022/10/22 05:41:48;;;;;;;18.48;4.88;;;;;;;13.02;100.00;100811.19;5074184;28;20021;-71
2022/10/22 05:44:13;;;;;;;19.38;5.07;;;;;;;13.01;100.00;100814.97;5073942;28;20436;-69
2022/10/22 05:46:39;;;;;;;17.45;4.95;;;;;;;13.01;100.00;100816.88;5072878;28;20017;-69
2022/10/22 05:49:06;;;;;;;14.13;4.07;;;;;;;13.00;100.00;100816.06;5073581;28;20039;-68
2022/10/22 05:51:33;;;;;;;18.20;4.10;;;;;;;13.00;100.00;100817.94;5074249;28;20448;-70
2022/10/22 05:54:01;;;;;;;21.83;4.93;;;;;;;13.01;100.00;100827.72;5087687;28;20032;-69
2022/10/22 05:56:28;;;;;;;15.13;4.00;;;;;;;12.98;100.00;100820.88;5088804;28;20020;-67
2022/10/22 05:58:54;;;;;;;16.35;4.22;;;;;;;12.96;100.00;100823.03;5073892;28;20103;-73
2022/10/22 06:01:26;;;;;;;14.98;4.28;;;;;;;12.96;100.00;100833.91;5070674;28;20123;-70
2022/10/22 06:03:56;;;;;;;19.92;5.15;;;;;;;12.93;100.00;100835.19;5073695;28;20021;-66
2022/10/22 06:06:27;;;;;;;14.70;4.15;;;;;;;12.91;100.00;100839.25;5072391;28;20416;-73
2022/10/22 06:08:53;;;;;;;;;;;;;;;13.00;100.00;100840.50;5074050;28;20040;-70
2022/10/22 06:11:20;;;;;;;14.43;3.83;;;;;;;12.91;100.00;100842.75;5073097;28;20379;-70
2022/10/22 06:13:46;;;;;;;13.52;4.00;;;;;;;12.88;100.00;100842.44;5081392;28;20471;-70
2022/10/22 06:16:12;;;;;;;11.60;3.63;;;;;;;12.86;100.00;100844.53;5091662;28;20035;-71
2022/10/22 06:18:37;;;;;;;14.93;3.67;;;;;;;12.85;100.00;100854.59;5093725;28;20028;-67
2022/10/22 06:21:08;;;;;;;13.60;4.10;;;;;;;12.85;100.00;100860.03;5093229;28;20097;-68
2022/10/22 06:23:34;;;;;;;18.83;3.90;;;;;;;12.86;100.00;100867.13;5093729;28;20020;-70
2022/10/22 06:26:00;;;;;;;14.10;3.63;;;;;;;12.86;100.00;100868.97;5091557;28;20066;-70
2022/10/22 06:28:25;;;;;;;11.75;3.55;;;;;;;12.85;100.00;100867.34;5093551;28;20351;-71
2022/10/22 06:30:51;;;;;;;14.70;3.53;;;;;;;12.87;100.00;100871.47;5093119;28;20409;-66
2022/10/22 06:33:16;;;;;;;11.73;3.75;;;;;;;12.88;100.00;100881.28;5092058;28;20024;-67
2022/10/22 06:35:41;;;;;;;14.63;3.35;;;;;;;12.86;100.00;100877.97;5092505;28;20027;-68
2022/10/22 06:38:07;;;;;;;13.07;3.20;;;;;;;12.86;100.00;100882.56;5075779;28;20020;-69
2022/10/22 06:40:32;;;;;;;11.68;3.35;;;;;;;12.85;100.00;100887.19;5073002;28;20039;-69
2022/10/22 06:42:59;;;;;;;14.98;3.63;;;;;;;12.84;100.00;100890.13;5072745;28;20021;-68
2022/10/22 06:45:24;;;;;;;13.27;3.80;;;;;;;12.83;100.00;100892.03;5071563;28;20355;-68
2022/10/22 06:47:50;;;;;;;12.60;3.22;;;;;;;12.85;100.00;100891.81;5072683;28;20103;-70
2022/10/22 06:50:15;;;;;;;12.10;3.80;;;;;;;12.83;100.00;100905.63;5071048;28;20108;-73
2022/10/22 06:52:40;;;;;;;11.25;3.33;;;;;;;12.83;100.00;100900.19;5072608;28;20140;-72
2022/10/22 06:55:06;;;;;;;16.02;3.40;;;;;;;12.83;100.00;100910.19;5083423;28;20459;-71
2022/10/22 06:57:31;;;;;;;8.75;3.00;;;;;;;12.83;100.00;100911.06;5090940;28;20030;-72
2022/10/22 06:59:56;;;;;;;12.50;3.20;;;;;;;12.83;100.00;100921.06;5088314;28;20035;-73
2022/10/22 07:02:22;;;;;;;14.50;3.75;;;;;;;12.84;100.00;100923.53;5086942;28;20030;-69
2022/10/22 07:04:47;;;;;;;13.90;3.00;;;;;;;12.83;100.00;100921.06;5082032;28;20375;-70
2022/10/22 07:07:13;;;;;;;13.15;3.42;;;;;;;12.84;100.00;100926.25;5092358;28;20028;-70
2022/10/22 07:09:39;;;;;;;13.00;2.90;;;;;;;12.84;100.00;100934.41;5092856;28;20024;-71
2022/10/22 07:12:05;;;;;;;13.55;3.67;;;;;;;12.89;100.00;100948.13;5092591;28;20081;-72
2022/10/22 07:14:30;;;;;;;14.20;3.03;;;;;;;12.92;100.00;100950.34;5084049;28;20036;-73
2022/10/22 07:16:55;;;;;;;12.90;3.40;;;;;;;12.94;100.00;100945.50;5071058;28;20048;-74
2022/10/22 07:19:21;;;;;;;15.63;3.40;;;;;;;12.98;100.00;100948.56;5072041;28;20017;-70
2022/10/22 07:21:46;;;;;;;12.18;3.08;;;;;;;12.99;100.00;100950.22;5071608;28;20037;-73
2022/10/22 07:24:11;;;;;;;16.65;3.35;;;;;;;13.02;100.00;100951.63;5077186;28;20083;-72
2022/10/22 07:26:37;;;;;;;11.10;2.97;;;;;;;13.06;100.00;100952.81;5076444;28;20455;-72
2022/10/22 07:29:03;;;;;;;11.98;2.83;;;;;;;13.05;100.00;100954.69;5071886;28;20024;-70
2022/10/22 07:31:29;;;;;;;13.73;2.90;;;;;;;13.05;100.00;100956.59;5071985;28;20027;-71
2022/10/22 07:33:54;;;;;;;14.75;3.17;;;;;;;13.10;100.00;100970.28;5076445;28;20032;-71
2022/10/22 07:36:19;;;;;;;11.23;3.30;;;;;;;13.12;100.00;100968.16;5074010;28;20039;-72
2022/10/22 07:38:53;;;;;;;12.20;3.30;;;;;;;13.16;100.00;100971.22;5074638;28;20471;-71
2022/10/22 07:41:18;;;;;;;16.23;3.30;;;;;;;13.16;100.00;100980.19;5075807;28;20107;-72
2022/10/22 07:43:44;;;;;;;10.02;2.70;;;;;;;13.22;100.00;100979.22;5076854;28;20056;-72
2022/10/22 07:46:09;;;;;;;11.23;3.17;;;;;;;13.26;100.00;100974.97;5082008;28;20042;-68
2022/10/22 07:48:35;;;;;;;14.32;3.20;;;;;;;13.33;100.00;100984.88;5096627;28;20023;-72
2022/10/22 07:51:01;;;;;;;11.52;2.80;;;;;;;13.34;100.00;100981.13;5096893;28;20031;-73
2022/10/22 07:53:27;;;;;;;12.82;3.42;;;;;;;13.39;100.00;100978.50;5088635;28;20028;-71
2022/10/22 07:55:52;;;;;;;11.85;3.20;;;;;;;13.41;100.00;100989.97;5094859;28;20024;-71
2022/10/22 07:58:18;;;;;;;13.60;3.17;;;;;;;13.42;100.00;100983.47;5096208;28;20024;-71
2022/10/22 08:00:44;;;;;;;16.60;3.22;;;;;;;13.44;100.00;100989.50;5093799;28;20046;-71
2022/10/22 08:03:10;;;;;;;14.13;3.03;;;;;;;13.47;100.00;100997.19;5094047;28;20037;-71
2022/10/22 08:05:36;;;;;;;20.92;3.47;;;;;;;13.46;100.00;100995.50;5087705;28;20475;-70
2022/10/22 08:08:01;;;;;;;13.55;3.15;;;;;;;13.52;100.00;101002.69;5084551;28;20032;-70
2022/10/22 08:10:26;;;;;;;9.90;2.78;;;;;;;13.54;100.00;101005.19;5075379;28;20078;-71
2022/10/22 08:12:52;;;;;;;11.98;3.28;;;;;;;13.55;100.00;100999.50;5085446;28;20024;-72
2022/10/22 08:15:22;;;;;;;14.73;2.90;;;;;;;13.58;100.00;101018.03;5095782;28;20097;-70
2022/10/22 08:17:47;;;;;;;13.27;3.28;;;;;;;13.65;100.00;101012.50;5095782;28;20427;-71
2022/10/22 08:20:12;;;;;;;10.85;2.60;;;;;;;13.70;100.00;101006.31;5094996;28;20068;-71
2022/10/22 08:22:37;;;;;;;11.30;2.90;;;;;;;13.74;100.00;101012.91;5095509;28;20020;-68
2022/10/22 08:25:03;;;;;;;11.43;2.70;;;;;;;13.76;100.00;101021.66;5088843;28;20020;-72
2022/10/22 08:27:28;;;;;;;11.25;3.03;;;;;;;13.83;100.00;101025.09;5075078;28;20444;-70
2022/10/22 08:29:54;;;;;;;13.65;2.60;;;;;;;13.86;100.00;101026.47;5074963;28;20113;-73
2022/10/22 08:32:19;;;;;;;11.60;2.70;;;;;;;13.96;100.00;101041.09;5075275;28;20032;-70
2022/10/22 08:34:44;;;;;;;12.57;2.70;;;;;;;14.06;100.00;101035.03;5086211;28;20448;-71
2022/10/22 08:37:13;;;;;;;12.75;2.63;;;;;;;14.14;100.00;101040.06;5081741;28;20039;-72
2022/10/22 08:39:38;;;;;;;11.55;2.50;;;;;;;14.20;100.00;101035.53;5074989;28;20031;-69
2022/10/22 08:42:16;;;;;;;13.20;2.50;;;;;;;14.28;100.00;101043.31;5075079;28;20385;-71
2022/10/22 08:45:25;;;;;;;13.02;2.50;;;;;;;14.33;100.00;101054.28;5078365;28;20064;-71
2022/10/22 08:48:22;;;;;;;12.93;2.92;;;;;;;14.41;100.00;101046.81;5075004;28;20032;-71
2022/10/22 08:50:53;;;;;;;13.55;2.50;;;;;;;14.46;100.00;101063.22;5076768;28;20043;-71
2022/10/22 08:53:24;;;;;;;9.75;2.38;;;;;;;14.50;100.00;101067.09;5074918;28;20107;-72
2022/10/22 08:55:52;;;;;;;10.85;2.50;;;;;;;14.52;100.00;101059.50;5075008;28;20029;-71
2022/10/22 08:58:24;;;;;;;9.52;2.40;;;;;;;14.54;100.00;101065.56;5073557;28;20074;-72
2022/10/22 09:00:59;;;;;;;9.93;2.22;;;;;;;14.65;100.00;101078.28;5072207;28;20032;-71
2022/10/22 09:04:05;;;;;;;11.10;2.50;;;;;;;14.68;100.00;101082.44;5081093;28;20078;-72
2022/10/22 09:06:34;;;;;;;12.23;2.90;;;;;;;14.70;100.00;101085.72;5081774;28;20103;-72
2022/10/22 09:09:00;;;;;;;9.35;2.40;;;;;;;14.71;100.00;101090.09;5075176;28;20031;-71
2022/10/22 09:11:31;;;;;;;11.40;2.90;;;;;;;14.74;100.00;101095.06;5074585;28;20028;-71
2022/10/22 09:13:58;;;;;;;8.50;2.90;;;;;;;14.74;100.00;101094.25;5074987;28;20487;-71
2022/10/22 09:16:35;;;;;;;12.10;2.50;;;;;;;14.75;100.00;101101.31;5078023;28;20024;-72
2022/10/22 09:19:16;;;;;;;14.48;2.67;;;;;;;14.77;100.00;101102.72;5084621;28;20043;-71
2022/10/22 09:22:07;;;;;;;11.60;2.60;;;;;;;14.71;100.00;101107.25;5078140;28;20127;-71
2022/10/22 09:24:43;;;;;;;12.32;2.85;;;;;;;14.70;100.00;101102.91;5107597;28;20424;-71
2022/10/22 09:27:19;;;;;;;9.70;2.45;;;;;;;14.71;100.00;101104.53;5101473;28;20478;-72
2022/10/22 09:29:45;;;;;;;11.52;2.70;;;;;;;14.73;100.00;101108.91;5095384;28;20031;-71
2022/10/22 09:32:11;;;;;;;12.75;2.70;;;;;;;14.71;100.00;101112.72;5080864;28;20059;-70
2022/10/22 09:34:37;;;;;;;6.53;2.40;;;;;;;14.75;100.00;101118.50;5091377;28;20060;-72
2022/10/22 09:37:07;;;;;;;16.08;2.88;;;;;;;14.74;100.00;101124.22;5092908;28;20073;-72
2022/10/22 09:39:33;;;;;;;19.98;2.90;;;;;;;14.76;100.00;101124.78;5094383;28;20038;-73
2022/10/22 09:41:59;;;;;;;14.05;3.13;;;;;;;14.78;100.00;101128.06;5094429;28;20024;-73
2022/10/22 09:44:24;;;;;;;9.57;2.20;;;;;;;14.78;100.00;101128.91;5094212;28;20443;-73
2022/10/22 09:46:50;;;;;;;11.00;2.40;;;;;;;14.82;100.00;101131.97;5093139;28;20027;-73
2022/10/22 09:49:21;;;;;;;9.45;2.50;;;;;;;14.84;100.00;101135.25;5092569;28;20081;-73
2022/10/22 09:51:53;;;;;;;13.85;3.30;;;;;;;14.87;100.00;101134.75;5094575;28;20375;-72
2022/10/22 09:54:24;;;;;;;12.40;2.88;;;;;;;14.90;100.00;101137.00;5084210;28;20055;-73
2022/10/22 09:57:01;;;;;;;9.27;2.47;;;;;;;14.96;100.00;101136.03;5073075;28;20070;-73
2022/10/22 09:59:30;;;;;;;10.80;2.75;;;;;;;14.95;100.00;101145.25;5073595;28;20104;-73
2022/10/22 10:02:02;;;;;;;11.00;2.38;;;;;;;14.99;100.00;101151.03;5070561;28;20368;-72
2022/10/22 10:04:34;;;;;;;9.85;2.72;;;;;;;14.98;100.00;101165.75;5073310;28;20029;-72
2022/10/22 10:06:59;;;;;;;;;;;;;;;15.03;100.00;101166.63;5091017;28;20020;-71
2022/10/22 10:09:26;;;;;;;9.53;2.27;;;;;;;15.00;100.00;101164.41;5093444;28;20244;-70
2022/10/22 10:12:04;;;;;;;11.80;2.45;;;;;;;15.01;100.00;101171.53;5092655;28;20028;-71
2022/10/22 10:15:05;;;;;;;9.45;2.47;;;;;;;15.01;100.00;101178.88;5093868;28;20031;-71
2022/10/22 10:17:54;;;;;;;12.45;2.50;;;;;;;15.01;100.00;101182.44;5088905;28;20493;-71
2022/10/22 10:20:40;;;;;;;10.73;2.60;;;;;;;15.01;100.00;101185.16;5093072;28;20043;-70
2022/10/22 10:23:49;;;;;;;11.23;2.70;;;;;;;15.06;100.00;101184.41;5092106;28;20055;-70
2022/10/22 10:26:36;;;;;;;16.42;3.17;;;;;;;15.10;100.00;101185.56;5050331;28;20139;-71
2022/10/22 10:29:15;;;;;;;14.05;2.70;;;;;;;15.12;100.00;101185.31;5072832;28;20033;-72
2022/10/22 10:32:05;;;;;;;12.23;2.63;;;;;;;15.18;100.00;101190.59;5072778;28;20076;-70
2022/10/22 10:34:43;;;;;;;16.17;3.35;;;;;;;15.18;100.00;101182.44;5071641;28;20471;-71
2022/10/22 10:37:23;;;;;;;15.27;3.05;;;;;;;15.25;100.00;101193.19;5073222;28;20063;-70
2022/10/22 10:39:58;;;;;;;10.93;2.53;;;;;;;15.25;100.00;101185.00;5078198;28;20056;-71
2022/10/22 10:42:31;;;;;;;12.18;2.33;;;;;;;15.30;100.00;101197.88;5080203;28;20073;-70
2022/10/22 10:45:01;;;;;;;10.02;2.35;;;;;;;15.31;100.00;101192.19;5093058;28;20024;-71
2022/10/22 10:47:49;;;;;;;13.38;2.72;;;;;;;15.38;100.00;101197.47;5092842;28;20530;-70
2022/10/22 10:50:51;;;;;;;11.80;2.80;;;;;;;15.44;100.00;101204.66;5080954;28;20339;-70
2022/10/22 10:53:50;;;;;;;11.65;2.72;;;;;;;15.49;100.00;101202.00;5077192;28;20023;-72
2022/10/22 10:56:31;;;;;;;11.88;2.67;;;;;;;15.54;100.00;101201.25;5092955;28;20027;-70
2022/10/22 10:58:59;;;;;;;;;;;;;;;15.60;100.00;101203.00;5092779;28;20035;-71
2022/10/22 11:02:12;;;;;;;10.40;2.58;;;;;;;15.65;100.00;101194.88;5089832;28;19920;-72
2022/10/22 11:04:56;;;;;;;14.32;2.97;;;;;;;15.67;100.00;101200.91;5092883;28;20034;-73
2022/10/22 11:07:33;;;;;;;11.40;2.45;;;;;;;15.70;100.00;101191.38;5092694;28;20020;-70
2022/10/22 11:10:03;;;;;;;9.43;2.67;;;;;;;15.68;100.00;101205.28;5090674;28;20020;-69
2022/10/22 11:12:38;;;;;;;15.38;2.85;;;;;;;15.74;100.00;101196.09;5071455;28;20032;-69
2022/10/22 11:15:31;;;;;;;12.52;3.00;;;;;;;15.90;100.00;101201.81;5072363;28;20105;-70
2022/10/22 11:18:06;;;;;;;13.50;2.92;;;;;;;15.97;100.00;101198.88;5072579;28;20012;-71
2022/10/22 11:20:43;;;;;;;14.40;3.13;;;;;;;16.05;100.00;101203.94;5073899;28;20052;-70
2022/10/22 11:23:16;;;;;;;14.15;2.97;;;;;;;15.99;100.00;101205.75;5054855;28;20040;-73
2022/10/22 11:25:45;;;;;;;14.07;2.58;;;;;;;15.98;100.00;101204.09;5072555;28;20032;-70